sensor_id;sensor_type;location;lat;lon;timestamp;pressure;altitude;pressure_sealevel;temperature;humidity
14204;BME280;7185;51.854;6.622;2023-05-24T00:01:38;102128.53;;;12.58;61.87
14204;BME280;7185;51.854;6.622;2023-05-24T00:04:31;102124.09;;;12.65;61.87
14204;BME280;7185;51.854;6.622;2023-05-24T00:07:22;102123.22;;;12.66;61.97
14204;BME280;7185;51.854;6.622;2023-05-24T00:10:12;102116.25;;;12.57;62.13
14204;BME280;7185;51.854;6.622;2023-05-24T00:13:02;102114.50;;;12.52;62.28
14204;BME280;7185;51.854;6.622;2023-05-24T00:15:53;102113.63;;;12.48;62.59
14204;BME280;7185;51.854;6.622;2023-05-24T00:18:43;102112.75;;;12.44;62.75
14204;BME280;7185;51.854;6.622;2023-05-24T00:21:39;102114.50;;;12.46;62.82
14204;BME280;7185;51.854;6.622;2023-05-24T00:24:29;102113.66;;;12.31;63.39
14204;BME280;7185;51.854;6.622;2023-05-24T00:27:22;102107.53;;;12.29;63.50
14204;BME280;7185;51.854;6.622;2023-05-24T00:30:12;102101.38;;;12.30;63.75
14204;BME280;7185;51.854;6.622;2023-05-24T00:33:03;102099.66;;;12.21;63.89
14204;BME280;7185;51.854;6.622;2023-05-24T00:35:54;102100.56;;;12.00;65.12
14204;BME280;7185;51.854;6.622;2023-05-24T00:38:55;102096.13;;;12.18;64.70
14204;BME280;7185;51.854;6.622;2023-05-24T00:41:45;102089.13;;;12.15;64.71
14204;BME280;7185;51.854;6.622;2023-05-24T00:44:35;102087.41;;;12.11;64.71
14204;BME280;7185;51.854;6.622;2023-05-24T00:47:26;102096.13;;;12.13;64.76
14204;BME280;7185;51.854;6.622;2023-05-24T00:50:17;102086.50;;;12.04;65.16
14204;BME280;7185;51.854;6.622;2023-05-24T00:53:08;102088.28;;;11.99;65.55
14204;BME280;7185;51.854;6.622;2023-05-24T00:56:01;102086.50;;;11.92;65.48
14204;BME280;7185;51.854;6.622;2023-05-24T00:58:52;102080.34;;;11.90;65.73
14204;BME280;7185;51.854;6.622;2023-05-24T01:01:44;102064.59;;;11.71;66.19
14204;BME280;7185;51.854;6.622;2023-05-24T01:04:35;102073.34;;;11.64;66.90
14204;BME280;7185;51.854;6.622;2023-05-24T01:07:29;102068.06;;;11.61;66.87
14204;BME280;7185;51.854;6.622;2023-05-24T01:10:33;102070.72;;;11.52;67.15
14204;BME280;7185;51.854;6.622;2023-05-24T01:13:39;102066.31;;;11.64;66.75
14204;BME280;7185;51.854;6.622;2023-05-24T01:16:40;102074.22;;;11.78;66.38
14204;BME280;7185;51.854;6.622;2023-05-24T01:19:50;102069.84;;;11.73;66.36
14204;BME280;7185;51.854;6.622;2023-05-24T01:23:04;102065.44;;;11.66;66.59
14204;BME280;7185;51.854;6.622;2023-05-24T01:26:05;102065.47;;;11.64;66.51
14204;BME280;7185;51.854;6.622;2023-05-24T01:28:59;102070.69;;;11.61;66.66
14204;BME280;7185;51.854;6.622;2023-05-24T01:31:51;102069.81;;;11.53;66.89
14204;BME280;7185;51.854;6.622;2023-05-24T01:34:42;102072.44;;;11.43;67.37
14204;BME280;7185;51.854;6.622;2023-05-24T01:37:32;102069.78;;;11.42;67.38
14204;BME280;7185;51.854;6.622;2023-05-24T01:40:22;102070.69;;;11.42;67.16
14204;BME280;7185;51.854;6.622;2023-05-24T01:43:16;102066.28;;;11.43;67.50
14204;BME280;7185;51.854;6.622;2023-05-24T01:46:12;102076.81;;;11.34;67.88
14204;BME280;7185;51.854;6.622;2023-05-24T01:49:17;102068.03;;;11.33;67.89
14204;BME280;7185;51.854;6.622;2023-05-24T01:52:12;102068.03;;;11.33;67.83
14204;BME280;7185;51.854;6.622;2023-05-24T01:55:06;102072.41;;;11.34;67.79
14204;BME280;7185;51.854;6.622;2023-05-24T01:58:01;102067.16;;;11.34;68.07
14204;BME280;7185;51.854;6.622;2023-05-24T02:00:52;102066.28;;;11.30;68.34
14204;BME280;7185;51.854;6.622;2023-05-24T02:03:44;102078.53;;;11.30;68.17
14204;BME280;7185;51.854;6.622;2023-05-24T02:06:34;102075.91;;;11.33;68.12
14204;BME280;7185;51.854;6.622;2023-05-24T02:09:25;102069.75;;;11.22;68.38
14204;BME280;7185;51.854;6.622;2023-05-24T02:12:15;102078.47;;;11.18;68.96
14204;BME280;7185;51.854;6.622;2023-05-24T02:15:06;102073.25;;;11.14;69.10
14204;BME280;7185;51.854;6.622;2023-05-24T02:18:01;102082.84;;;11.09;69.47
14204;BME280;7185;51.854;6.622;2023-05-24T02:20:53;102084.59;;;11.07;69.53
14204;BME280;7185;51.854;6.622;2023-05-24T02:23:43;102073.22;;;11.10;69.55
14204;BME280;7185;51.854;6.622;2023-05-24T02:26:33;102081.09;;;11.02;70.03
14204;BME280;7185;51.854;6.622;2023-05-24T02:29:24;102079.34;;;11.07;70.04
14204;BME280;7185;51.854;6.622;2023-05-24T02:32:14;102077.56;;;11.00;70.46
14204;BME280;7185;51.854;6.622;2023-05-24T02:35:05;102075.81;;;10.96;70.26
14204;BME280;7185;51.854;6.622;2023-05-24T02:37:57;102081.06;;;11.00;70.22
14204;BME280;7185;51.854;6.622;2023-05-24T02:40:47;102080.22;;;11.05;70.39
14204;BME280;7185;51.854;6.622;2023-05-24T02:43:38;102081.06;;;10.97;70.35
14204;BME280;7185;51.854;6.622;2023-05-24T02:46:28;102075.75;;;10.90;70.39
14204;BME280;7185;51.854;6.622;2023-05-24T02:49:18;102084.50;;;10.86;71.10
14204;BME280;7185;51.854;6.622;2023-05-24T02:52:08;102083.63;;;10.83;70.68
14204;BME280;7185;51.854;6.622;2023-05-24T02:55:00;102078.34;;;10.79;70.97
14204;BME280;7185;51.854;6.622;2023-05-24T02:57:50;102079.22;;;10.76;71.28
14204;BME280;7185;51.854;6.622;2023-05-24T03:00:42;102071.34;;;10.73;71.13
14204;BME280;7185;51.854;6.622;2023-05-24T03:03:32;102073.03;;;10.68;71.48
14204;BME280;7185;51.854;6.622;2023-05-24T03:06:22;102069.59;;;10.80;71.11
14204;BME280;7185;51.854;6.622;2023-05-24T03:09:12;102066.09;;;10.73;71.51
14204;BME280;7185;51.854;6.622;2023-05-24T03:12:06;102061.69;;;10.66;71.85
14204;BME280;7185;51.854;6.622;2023-05-24T03:14:56;102057.28;;;10.62;71.98
14204;BME280;7185;51.854;6.622;2023-05-24T03:17:46;102059.03;;;10.64;71.85
14204;BME280;7185;51.854;6.622;2023-05-24T03:20:37;102060.78;;;10.62;72.05
14204;BME280;7185;51.854;6.622;2023-05-24T03:23:27;102059.00;;;10.58;72.15
14204;BME280;7185;51.854;6.622;2023-05-24T03:26:18;102054.63;;;10.52;72.12
14204;BME280;7185;51.854;6.622;2023-05-24T03:29:09;102058.09;;;10.48;72.37
14204;BME280;7185;51.854;6.622;2023-05-24T03:31:59;102052.91;;;10.61;71.70
14204;BME280;7185;51.854;6.622;2023-05-24T03:34:50;102056.41;;;10.60;71.99
14204;BME280;7185;51.854;6.622;2023-05-24T03:37:40;102063.47;;;10.73;71.42
14204;BME280;7185;51.854;6.622;2023-05-24T03:40:31;102061.72;;;10.72;71.69
14204;BME280;7185;51.854;6.622;2023-05-24T03:43:22;102066.97;;;10.75;71.77
14204;BME280;7185;51.854;6.622;2023-05-24T03:46:13;102061.72;;;10.75;71.84
14204;BME280;7185;51.854;6.622;2023-05-24T03:49:05;102062.63;;;10.83;71.56
14204;BME280;7185;51.854;6.622;2023-05-24T03:51:55;102064.38;;;10.81;71.71
14204;BME280;7185;51.854;6.622;2023-05-24T03:54:46;102058.25;;;10.82;71.80
14204;BME280;7185;51.854;6.622;2023-05-24T03:57:36;102063.47;;;10.76;71.79
14204;BME280;7185;51.854;6.622;2023-05-24T04:00:27;102065.22;;;10.74;71.96
14204;BME280;7185;51.854;6.622;2023-05-24T04:03:18;102060.84;;;10.76;72.14
14204;BME280;7185;51.854;6.622;2023-05-24T04:06:09;102073.09;;;10.76;72.10
14204;BME280;7185;51.854;6.622;2023-05-24T04:08:59;102068.75;;;10.78;72.31
14204;BME280;7185;51.854;6.622;2023-05-24T04:11:50;102068.75;;;10.81;72.54
14204;BME280;7185;51.854;6.622;2023-05-24T04:14:40;102074.81;;;10.74;72.88
14204;BME280;7185;51.854;6.622;2023-05-24T04:17:30;102067.06;;;10.94;72.49
14204;BME280;7185;51.854;6.622;2023-05-24T04:20:24;102075.81;;;10.99;72.77
14204;BME280;7185;51.854;6.622;2023-05-24T04:23:15;102074.09;;;11.10;72.40
14204;BME280;7185;51.854;6.622;2023-05-24T04:26:06;102076.75;;;11.16;72.59
14204;BME280;7185;51.854;6.622;2023-05-24T04:28:57;102074.16;;;11.23;72.58
14204;BME280;7185;51.854;6.622;2023-05-24T04:31:48;102082.91;;;11.34;71.84
14204;BME280;7185;51.854;6.622;2023-05-24T04:34:40;102082.94;;;11.43;71.65
14204;BME280;7185;51.854;6.622;2023-05-24T04:37:33;102084.72;;;11.51;71.14
14204;BME280;7185;51.854;6.622;2023-05-24T04:40:23;102086.47;;;11.59;71.10
14204;BME280;7185;51.854;6.622;2023-05-24T04:43:14;102077.72;;;11.73;70.96
14204;BME280;7185;51.854;6.622;2023-05-24T04:46:04;102083.84;;;11.76;70.82
14204;BME280;7185;51.854;6.622;2023-05-24T04:48:54;102083.88;;;11.79;70.73
14204;BME280;7185;51.854;6.622;2023-05-24T04:51:45;102085.59;;;11.85;70.87
14204;BME280;7185;51.854;6.622;2023-05-24T04:54:38;102084.72;;;11.88;70.53
14204;BME280;7185;51.854;6.622;2023-05-24T04:57:31;102081.22;;;11.92;70.60
14204;BME280;7185;51.854;6.622;2023-05-24T05:00:21;102091.78;;;11.98;70.66
14204;BME280;7185;51.854;6.622;2023-05-24T05:03:12;102090.91;;;12.04;70.37
14204;BME280;7185;51.854;6.622;2023-05-24T05:06:04;102093.50;;;12.18;69.97
14204;BME280;7185;51.854;6.622;2023-05-24T05:12:48;102084.75;;;12.25;70.30
14204;BME280;7185;51.854;6.622;2023-05-24T05:15:40;102091.75;;;12.37;70.59
14204;BME280;7185;51.854;6.622;2023-05-24T05:18:33;102083.78;;;12.68;69.16
14204;BME280;7185;51.854;6.622;2023-05-24T05:21:23;102074.97;;;12.77;69.07
14204;BME280;7185;51.854;6.622;2023-05-24T05:24:14;102081.09;;;12.85;68.94
14204;BME280;7185;51.854;6.622;2023-05-24T05:27:05;102079.34;;;12.74;69.21
14204;BME280;7185;51.854;6.622;2023-05-24T05:29:56;102082.81;;;12.89;68.89
14204;BME280;7185;51.854;6.622;2023-05-24T05:32:46;102085.44;;;12.97;68.31
14204;BME280;7185;51.854;6.622;2023-05-24T05:35:37;102079.25;;;13.02;68.57
14204;BME280;7185;51.854;6.622;2023-05-24T05:38:27;102068.66;;;13.12;68.34
14204;BME280;7185;51.854;6.622;2023-05-24T05:41:17;102062.44;;;13.30;68.32
14204;BME280;7185;51.854;6.622;2023-05-24T05:44:08;102061.47;;;13.48;67.65
14204;BME280;7185;51.854;6.622;2023-05-24T05:47:00;102068.50;;;13.49;67.69
14204;BME280;7185;51.854;6.622;2023-05-24T05:49:51;102066.59;;;13.66;67.27
14204;BME280;7185;51.854;6.622;2023-05-24T05:52:42;102080.59;;;13.71;67.66
14204;BME280;7185;51.854;6.622;2023-05-24T05:55:32;102095.50;;;13.77;67.66
14204;BME280;7185;51.854;6.622;2023-05-24T05:58:23;102092.78;;;13.88;67.61
14204;BME280;7185;51.854;6.622;2023-05-24T06:01:14;102100.47;;;14.14;67.04
14204;BME280;7185;51.854;6.622;2023-05-24T06:04:06;102097.63;;;14.34;66.94
14204;BME280;7185;51.854;6.622;2023-05-24T06:06:56;102100.31;;;14.28;66.51
14204;BME280;7185;51.854;6.622;2023-05-24T06:09:46;102107.38;;;14.28;66.72
14204;BME280;7185;51.854;6.622;2023-05-24T06:12:37;102120.38;;;14.48;66.26
14204;BME280;7185;51.854;6.622;2023-05-24T06:15:28;102110.50;;;14.67;65.92
14204;BME280;7185;51.854;6.622;2023-05-24T06:18:18;102107.94;;;14.59;65.84
14204;BME280;7185;51.854;6.622;2023-05-24T06:21:10;102120.16;;;14.70;65.11
14204;BME280;7185;51.854;6.622;2023-05-24T06:24:00;102121.91;;;14.74;65.23
14204;BME280;7185;51.854;6.622;2023-05-24T06:26:51;102121.84;;;14.77;65.61
14204;BME280;7185;51.854;6.622;2023-05-24T06:29:42;102121.75;;;14.86;65.55
14204;BME280;7185;51.854;6.622;2023-05-24T06:32:32;102123.31;;;15.03;64.12
14204;BME280;7185;51.854;6.622;2023-05-24T06:35:23;102124.22;;;15.02;64.70
14204;BME280;7185;51.854;6.622;2023-05-24T06:38:14;102118.78;;;15.12;64.39
14204;BME280;7185;51.854;6.622;2023-05-24T06:41:05;102115.25;;;15.13;64.49
14204;BME280;7185;51.854;6.622;2023-05-24T06:43:56;102110.59;;;15.33;62.94
14204;BME280;7185;51.854;6.622;2023-05-24T06:46:47;102114.88;;;15.41;62.75
14204;BME280;7185;51.854;6.622;2023-05-24T06:49:37;102106.78;;;15.52;62.71
14204;BME280;7185;51.854;6.622;2023-05-24T06:52:28;102107.69;;;15.51;62.46
14204;BME280;7185;51.854;6.622;2023-05-24T06:55:20;102111.78;;;15.71;62.14
14204;BME280;7185;51.854;6.622;2023-05-24T06:58:10;102120.63;;;15.70;61.57
14204;BME280;7185;51.854;6.622;2023-05-24T07:01:02;102121.28;;;15.87;60.98
14204;BME280;7185;51.854;6.622;2023-05-24T07:03:53;102112.28;;;15.98;60.16
14204;BME280;7185;51.854;6.622;2023-05-24T07:06:43;102113.81;;;16.13;60.71
14204;BME280;7185;51.854;6.622;2023-05-24T07:09:34;102110.84;;;16.30;59.46
14204;BME280;7185;51.854;6.622;2023-05-24T07:12:26;102107.19;;;16.37;59.53
14204;BME280;7185;51.854;6.622;2023-05-24T07:23:06;102117.88;;;16.78;56.90
14204;BME280;7185;51.854;6.622;2023-05-24T07:33:45;102114.44;;;16.25;56.68
14204;BME280;7185;51.854;6.622;2023-05-24T07:36:38;102116.56;;;16.55;56.19
14204;BME280;7185;51.854;6.622;2023-05-24T07:43:22;102120.75;;;16.67;55.80
14204;BME280;7185;51.854;6.622;2023-05-24T07:46:12;102122.69;;;16.59;55.12
14204;BME280;7185;51.854;6.622;2023-05-24T07:53:04;102112.97;;;16.57;55.29
14204;BME280;7185;51.854;6.622;2023-05-24T08:11:32;102114.03;;;16.47;55.33
14204;BME280;7185;51.854;6.622;2023-05-24T08:22:14;102096.31;;;16.98;54.76
14204;BME280;7185;51.854;6.622;2023-05-24T08:25:05;102087.91;;;17.19;54.00
14204;BME280;7185;51.854;6.622;2023-05-24T08:27:57;102091.06;;;17.37;51.75
14204;BME280;7185;51.854;6.622;2023-05-24T08:30:56;102091.56;;;17.51;50.19
14204;BME280;7185;51.854;6.622;2023-05-24T08:33:47;102093.44;;;17.84;49.40
14204;BME280;7185;51.854;6.622;2023-05-24T08:36:39;102096.63;;;18.00;49.15
14204;BME280;7185;51.854;6.622;2023-05-24T08:51:08;102093.41;;;18.55;46.54
14204;BME280;7185;51.854;6.622;2023-05-24T08:53:59;102091.75;;;18.18;46.65
14204;BME280;7185;51.854;6.622;2023-05-24T08:56:49;102096.03;;;18.23;47.32
14204;BME280;7185;51.854;6.622;2023-05-24T08:59:40;102088.06;;;18.23;47.68
14204;BME280;7185;51.854;6.622;2023-05-24T09:02:31;102096.03;;;18.23;46.87
14204;BME280;7185;51.854;6.622;2023-05-24T09:05:24;102091.66;;;18.54;46.33
14204;BME280;7185;51.854;6.622;2023-05-24T09:08:16;102093.41;;;18.55;46.01
14204;BME280;7185;51.854;6.622;2023-05-24T09:11:08;102084.13;;;19.01;46.00
14204;BME280;7185;51.854;6.622;2023-05-24T09:13:59;102084.03;;;19.34;44.30
14204;BME280;7185;51.854;6.622;2023-05-24T09:16:51;102095.50;;;19.06;43.79
14204;BME280;7185;51.854;6.622;2023-05-24T09:19:43;102099.09;;;18.74;44.42
14204;BME280;7185;51.854;6.622;2023-05-24T09:31:00;102108.44;;;18.87;43.52
14204;BME280;7185;51.854;6.622;2023-05-24T09:33:51;102101.69;;;19.07;43.34
14204;BME280;7185;51.854;6.622;2023-05-24T09:40:57;102088.25;;;20.22;42.29
14204;BME280;7185;51.854;6.622;2023-05-24T09:43:48;102085.94;;;20.11;41.56
14204;BME280;7185;51.854;6.622;2023-05-24T09:51:05;102084.19;;;19.85;41.84
14204;BME280;7185;51.854;6.622;2023-05-24T09:53:59;102075.88;;;19.94;42.08
14204;BME280;7185;51.854;6.622;2023-05-24T10:01:03;102075.44;;;20.57;40.92
14204;BME280;7185;51.854;6.622;2023-05-24T10:03:57;102068.19;;;20.86;40.26
14204;BME280;7185;51.854;6.622;2023-05-24T10:06:55;102067.19;;;20.89;39.56
14204;BME280;7185;51.854;6.622;2023-05-24T10:13:38;102062.22;;;20.30;41.39
14204;BME280;7185;51.854;6.622;2023-05-24T10:20:57;102075.75;;;20.49;41.28
14204;BME280;7185;51.854;6.622;2023-05-24T10:31:52;102078.00;;;19.56;42.43
14204;BME280;7185;51.854;6.622;2023-05-24T10:50:57;102082.09;;;19.39;44.33
14204;BME280;7185;51.854;6.622;2023-05-24T11:01:33;102087.03;;;19.23;44.44
14204;BME280;7185;51.854;6.622;2023-05-24T11:04:26;102083.56;;;18.90;44.99
14204;BME280;7185;51.854;6.622;2023-05-24T11:11:14;102082.34;;;18.70;45.75
14204;BME280;7185;51.854;6.622;2023-05-24T11:21:55;102080.97;;;19.47;44.87
14204;BME280;7185;51.854;6.622;2023-05-24T11:40:57;102080.91;;;20.03;42.51
14204;BME280;7185;51.854;6.622;2023-05-24T12:31:12;102053.59;;;23.23;37.78
14204;BME280;7185;51.854;6.622;2023-05-24T12:41:52;102049.03;;;23.06;36.44
14204;BME280;7185;51.854;6.622;2023-05-24T12:48:39;102046.84;;;22.96;36.53
14204;BME280;7185;51.854;6.622;2023-05-24T12:51:29;102038.72;;;23.16;37.04
14204;BME280;7185;51.854;6.622;2023-05-24T13:06:26;102034.22;;;22.80;36.78
14204;BME280;7185;51.854;6.622;2023-05-24T13:21:08;102039.50;;;22.82;37.51
14204;BME280;7185;51.854;6.622;2023-05-24T13:24:27;102035.31;;;22.76;36.93
14204;BME280;7185;51.854;6.622;2023-05-24T13:27:36;102037.41;;;22.88;36.29
14204;BME280;7185;51.854;6.622;2023-05-24T13:30:55;102031.75;;;22.95;37.56
14204;BME280;7185;51.854;6.622;2023-05-24T13:49:11;102018.75;;;22.87;36.61
14204;BME280;7185;51.854;6.622;2023-05-24T14:03:44;102012.75;;;23.01;36.02
14204;BME280;7185;51.854;6.622;2023-05-24T14:10:57;102021.34;;;23.27;36.20
14204;BME280;7185;51.854;6.622;2023-05-24T14:17:39;102017.50;;;23.13;35.93
14204;BME280;7185;51.854;6.622;2023-05-24T14:20:58;102018.44;;;23.12;36.62
14204;BME280;7185;51.854;6.622;2023-05-24T15:10:57;102019.13;;;21.58;38.00
14204;BME280;7185;51.854;6.622;2023-05-24T15:34:07;102022.72;;;21.57;38.08
14204;BME280;7185;51.854;6.622;2023-05-24T15:36:57;102025.06;;;21.43;37.21
14204;BME280;7185;51.854;6.622;2023-05-24T18:04:27;102019.28;;;19.62;45.75
14204;BME280;7185;51.854;6.622;2023-05-24T18:07:17;102025.53;;;19.61;46.08
14204;BME280;7185;51.854;6.622;2023-05-24T18:10:08;102034.47;;;19.58;45.98
14204;BME280;7185;51.854;6.622;2023-05-24T18:16:51;102031.00;;;19.28;46.43
14204;BME280;7185;51.854;6.622;2023-05-24T18:19:43;102027.91;;;19.14;46.96
14204;BME280;7185;51.854;6.622;2023-05-24T18:22:33;102029.56;;;19.18;46.48
14204;BME280;7185;51.854;6.622;2023-05-24T18:25:23;102038.84;;;19.04;47.32
14204;BME280;7185;51.854;6.622;2023-05-24T18:28:14;102033.75;;;18.98;46.92
14204;BME280;7185;51.854;6.622;2023-05-24T18:31:05;102047.66;;;19.06;46.82
14204;BME280;7185;51.854;6.622;2023-05-24T18:33:58;102039.06;;;18.98;47.29
14204;BME280;7185;51.854;6.622;2023-05-24T18:36:50;102037.44;;;18.92;47.82
14204;BME280;7185;51.854;6.622;2023-05-24T18:39:42;102040.09;;;18.92;47.50
14204;BME280;7185;51.854;6.622;2023-05-24T18:42:32;102046.53;;;18.84;47.67
14204;BME280;7185;51.854;6.622;2023-05-24T18:45:22;102052.03;;;18.77;48.34
14204;BME280;7185;51.854;6.622;2023-05-24T18:48:13;102049.69;;;18.67;48.09
14204;BME280;7185;51.854;6.622;2023-05-24T18:51:04;102054.56;;;18.51;48.17
14204;BME280;7185;51.854;6.622;2023-05-24T18:53:55;102063.59;;;18.43;48.65
14204;BME280;7185;51.854;6.622;2023-05-24T18:56:46;102060.16;;;18.41;48.94
14204;BME280;7185;51.854;6.622;2023-05-24T18:59:36;102063.78;;;18.37;48.86
14204;BME280;7185;51.854;6.622;2023-05-24T19:02:26;102061.97;;;18.39;49.21
14204;BME280;7185;51.854;6.622;2023-05-24T19:05:18;102062.38;;;18.25;49.67
14204;BME280;7185;51.854;6.622;2023-05-24T19:08:08;102068.75;;;18.18;49.80
14204;BME280;7185;51.854;6.622;2023-05-24T19:11:00;102071.53;;;18.13;50.20
14204;BME280;7185;51.854;6.622;2023-05-24T19:13:50;102074.97;;;18.15;50.75
14204;BME280;7185;51.854;6.622;2023-05-24T19:16:41;102086.88;;;18.00;50.84
14204;BME280;7185;51.854;6.622;2023-05-24T19:19:31;102084.22;;;18.00;50.88
14204;BME280;7185;51.854;6.622;2023-05-24T19:22:22;102088.81;;;17.92;51.46
14204;BME280;7185;51.854;6.622;2023-05-24T19:25:14;102091.84;;;17.78;52.00
14204;BME280;7185;51.854;6.622;2023-05-24T19:28:06;102086.69;;;17.72;52.38
14204;BME280;7185;51.854;6.622;2023-05-24T19:30:56;102086.00;;;17.62;52.40
14204;BME280;7185;51.854;6.622;2023-05-24T19:33:49;102090.75;;;17.49;53.18
14204;BME280;7185;51.854;6.622;2023-05-24T19:36:40;102098.06;;;17.38;53.71
14204;BME280;7185;51.854;6.622;2023-05-24T19:39:30;102097.31;;;17.33;53.74
14204;BME280;7185;51.854;6.622;2023-05-24T19:42:20;102102.00;;;17.20;54.21
14204;BME280;7185;51.854;6.622;2023-05-24T19:45:12;102110.84;;;17.20;54.39
14204;BME280;7185;51.854;6.622;2023-05-24T19:48:03;102114.53;;;17.13;54.60
14204;BME280;7185;51.854;6.622;2023-05-24T19:50:54;102103.22;;;17.05;55.17
14204;BME280;7185;51.854;6.622;2023-05-24T19:53:45;102120.25;;;16.92;55.39
14204;BME280;7185;51.854;6.622;2023-05-24T19:56:36;102113.34;;;16.84;55.67
14204;BME280;7185;51.854;6.622;2023-05-24T19:59:26;102116.16;;;16.75;56.25
14204;BME280;7185;51.854;6.622;2023-05-24T20:02:18;102122.47;;;16.68;56.45
14204;BME280;7185;51.854;6.622;2023-05-24T20:05:08;102127.78;;;16.68;56.60
14204;BME280;7185;51.854;6.622;2023-05-24T20:07:59;102130.53;;;16.62;56.88
14204;BME280;7185;51.854;6.622;2023-05-24T20:10:49;102129.59;;;16.66;56.94
14204;BME280;7185;51.854;6.622;2023-05-24T20:13:40;102137.88;;;16.49;57.56
14204;BME280;7185;51.854;6.622;2023-05-24T20:16:30;102139.06;;;16.78;56.79
14204;BME280;7185;51.854;6.622;2023-05-24T20:19:22;102138.19;;;16.30;58.27
14204;BME280;7185;51.854;6.622;2023-05-24T20:22:12;102135.50;;;16.33;58.49
14204;BME280;7185;51.854;6.622;2023-05-24T20:25:04;102135.69;;;16.22;58.57
14204;BME280;7185;51.854;6.622;2023-05-24T20:27:55;102140.06;;;16.23;58.86
14204;BME280;7185;51.854;6.622;2023-05-24T20:30:46;102146.41;;;16.13;59.00
14204;BME280;7185;51.854;6.622;2023-05-24T20:33:40;102153.47;;;16.14;59.11
14204;BME280;7185;51.854;6.622;2023-05-24T20:36:45;102153.63;;;16.03;59.54
14204;BME280;7185;51.854;6.622;2023-05-24T20:39:35;102161.59;;;16.00;59.63
14204;BME280;7185;51.854;6.622;2023-05-24T20:46:30;102158.16;;;15.95;59.77
14204;BME280;7185;51.854;6.622;2023-05-24T20:49:25;102153.06;;;15.81;60.34
14204;BME280;7185;51.854;6.622;2023-05-24T20:56:35;102160.13;;;15.81;60.37
14204;BME280;7185;51.854;6.622;2023-05-24T21:03:39;102166.25;;;15.84;60.30
14204;BME280;7185;51.854;6.622;2023-05-24T21:09:36;102167.22;;;15.78;60.51
14204;BME280;7185;51.854;6.622;2023-05-24T21:12:29;102172.50;;;15.78;60.71
14204;BME280;7185;51.854;6.622;2023-05-24T21:15:19;102169.13;;;15.67;60.92
14204;BME280;7185;51.854;6.622;2023-05-24T21:18:10;102173.47;;;15.73;60.88
14204;BME280;7185;51.854;6.622;2023-05-24T21:21:00;102181.56;;;15.62;61.00
14204;BME280;7185;51.854;6.622;2023-05-24T21:23:50;102186.03;;;15.55;61.36
14204;BME280;7185;51.854;6.622;2023-05-24T21:26:41;102189.44;;;15.67;61.10
14204;BME280;7185;51.854;6.622;2023-05-24T21:29:33;102187.69;;;15.64;61.40
14204;BME280;7185;51.854;6.622;2023-05-24T21:32:26;102191.38;;;15.52;61.25
14204;BME280;7185;51.854;6.622;2023-05-24T21:35:16;102196.66;;;15.51;61.30
14204;BME280;7185;51.854;6.622;2023-05-24T21:38:07;102202.16;;;15.37;61.51
14204;BME280;7185;51.854;6.622;2023-05-24T21:40:57;102198.91;;;15.13;62.47
14204;BME280;7185;51.854;6.622;2023-05-24T21:43:47;102196.25;;;15.13;62.38
14204;BME280;7185;51.854;6.622;2023-05-24T21:46:39;102199.03;;;15.04;62.55
14204;BME280;7185;51.854;6.622;2023-05-24T21:49:29;102198.88;;;15.16;62.26
14204;BME280;7185;51.854;6.622;2023-05-24T21:52:19;102198.81;;;15.22;61.83
14204;BME280;7185;51.854;6.622;2023-05-24T21:55:10;102203.13;;;15.29;61.80
14204;BME280;7185;51.854;6.622;2023-05-24T21:58:00;102208.44;;;15.28;61.59
14204;BME280;7185;51.854;6.622;2023-05-24T22:00:59;81798.19;;;15.26;100.00
14204;BME280;7185;51.854;6.622;2023-05-24T22:03:49;102207.72;;;15.12;62.29
14204;BME280;7185;51.854;6.622;2023-05-24T22:06:39;102213.06;;;15.09;62.49
14204;BME280;7185;51.854;6.622;2023-05-24T22:09:30;102220.22;;;14.97;62.79
14204;BME280;7185;51.854;6.622;2023-05-24T22:12:20;102214.09;;;14.95;62.62
14204;BME280;7185;51.854;6.622;2023-05-24T22:15:11;102225.50;;;14.97;62.48
14204;BME280;7185;51.854;6.622;2023-05-24T22:18:02;102220.34;;;14.85;62.85
14204;BME280;7185;51.854;6.622;2023-05-24T22:20:54;102229.22;;;14.78;63.15
14204;BME280;7185;51.854;6.622;2023-05-24T22:23:46;102226.47;;;14.89;62.68
14204;BME280;7185;51.854;6.622;2023-05-24T22:26:36;102237.91;;;14.89;62.59
14204;BME280;7185;51.854;6.622;2023-05-24T22:29:29;102234.34;;;14.93;63.37
14204;BME280;7185;51.854;6.622;2023-05-24T22:32:19;102238.88;;;14.82;62.84
14204;BME280;7185;51.854;6.622;2023-05-24T22:35:11;102240.66;;;14.77;62.84
14204;BME280;7185;51.854;6.622;2023-05-24T22:38:01;102235.34;;;14.81;62.83
14204;BME280;7185;51.854;6.622;2023-05-24T22:40:52;102229.97;;;14.91;62.08
14204;BME280;7185;51.854;6.622;2023-05-24T22:43:43;102230.97;;;14.79;62.68
14204;BME280;7185;51.854;6.622;2023-05-24T22:46:33;102234.59;;;14.69;63.10
14204;BME280;7185;51.854;6.622;2023-05-24T22:49:24;102234.56;;;14.72;62.53
14204;BME280;7185;51.854;6.622;2023-05-24T22:52:18;102232.84;;;14.68;62.92
14204;BME280;7185;51.854;6.622;2023-05-24T22:55:09;102234.66;;;14.56;63.32
14204;BME280;7185;51.854;6.622;2023-05-24T22:57:59;102230.19;;;14.69;62.93
14204;BME280;7185;51.854;6.622;2023-05-24T23:00:50;102235.59;;;14.49;63.29
14204;BME280;7185;51.854;6.622;2023-05-24T23:03:41;102233.91;;;14.43;63.67
14204;BME280;7185;51.854;6.622;2023-05-24T23:06:31;102236.53;;;14.42;63.62
14204;BME280;7185;51.854;6.622;2023-05-24T23:09:26;102238.38;;;14.30;63.95
14204;BME280;7185;51.854;6.622;2023-05-24T23:12:22;102238.38;;;14.30;63.96
14204;BME280;7185;51.854;6.622;2023-05-24T23:15:12;102234.97;;;14.19;64.17
14204;BME280;7185;51.854;6.622;2023-05-24T23:18:05;102239.34;;;14.18;64.49
14204;BME280;7185;51.854;6.622;2023-05-24T23:20:55;102242.03;;;14.15;64.59
14204;BME280;7185;51.854;6.622;2023-05-24T23:23:46;102247.31;;;14.11;64.85
14204;BME280;7185;51.854;6.622;2023-05-24T23:26:38;102245.50;;;14.21;64.59
14204;BME280;7185;51.854;6.622;2023-05-24T23:29:29;102241.06;;;14.24;64.51
14204;BME280;7185;51.854;6.622;2023-05-24T23:32:19;102236.72;;;14.20;64.61